< < Back
Terminal Aerodrome Forecast


Current Version              Previous Versions:   1  2  3  4  5  6  7  8  9  

Terminal Aerodrome Forecast

207
FTUS42 KCHS 260640 AAA
TAFCHS
TAF AMD
KCHS 260640Z 2607/2706 03007KT P6SM SCT015
      TEMPO 2608/2612 SCT008 BKN015
     FM261400 06010KT P6SM BKN040
     FM262300 09007KT P6SM FEW015 SCT060=

Latest METAR

103
SAUS80 KWBC 260800 RRB
MTRCHS
METAR KCHS 260756Z 02004KT 10SM BKN012 25/23 A3007 RMK AO2 SLP183 BKN V
SCT T02500228


USA.gov is the U.S. government's official web portal to all federal, state and local government web resources and services.